Time;durP1;ratioP1;P1;durP2;ratioP2;P2;SDS_P1;SDS_P2;PMS_P1;PMS_P2;Temp;Humidity;BMP_temperature;BMP_pressure;BME280_temperature;BME280_humidity;BME280_pressure;Samples;Min_cycle;Max_cycle;Signal;HPM_P1;HPM_P2
2021/09/05 00:00:49;;;;;;;5.22;2.80;;;;;;;5.64;97.21;100511.61;1682812;85;21076;-77
2021/09/05 00:03:15;;;;;;;6.05;2.90;;;;;;;5.62;97.45;100515.13;1682884;84;21072;-78
2021/09/05 00:05:42;;;;;;;7.35;3.12;;;;;;;5.61;97.55;100514.27;1683356;85;21060;-77
2021/09/05 00:08:09;;;;;;;6.12;2.52;;;;;;;5.59;97.89;100517.34;1682050;85;21079;-75
2021/09/05 00:12:04;;;;;;;5.92;3.00;;;;;;;5.57;97.58;100520.41;1796577;79;28733;-77
2021/09/05 00:14:33;;;;;;;5.95;3.20;;;;;;;5.48;97.52;100520.50;1756433;80;20966;-77
2021/09/05 00:17:00;;;;;;;7.62;3.37;;;;;;;5.46;97.49;100520.95;1756633;81;21094;-76
2021/09/05 00:19:27;;;;;;;6.62;3.15;;;;;;;5.42;97.46;100520.55;1756428;81;21049;-76
2021/09/05 00:21:55;;;;;;;8.00;2.98;;;;;;;5.37;97.34;100521.03;1756616;81;21009;-77
2021/09/05 00:24:22;;;;;;;6.70;3.00;;;;;;;5.34;97.29;100526.30;1756468;81;21033;-76
2021/09/05 00:26:49;;;;;;;6.87;3.33;;;;;;;5.29;97.23;100524.14;1756401;81;21623;-77
2021/09/05 00:29:16;;;;;;;6.40;3.42;;;;;;;5.21;97.16;100527.69;1756293;81;21598;-77
2021/09/05 00:31:44;;;;;;;6.97;3.27;;;;;;;5.18;97.23;100534.26;1756310;81;21050;-77
2021/09/05 00:34:10;;;;;;;6.17;3.22;;;;;;;5.12;97.09;100530.38;1756365;81;21041;-79
2021/09/05 00:36:38;;;;;;;8.58;3.10;;;;;;;5.10;97.20;100536.05;1756392;81;21045;-77
2021/09/05 00:39:06;;;;;;;5.15;2.90;;;;;;;5.07;97.33;100537.39;1756618;81;21037;-76
2021/09/05 00:41:33;;;;;;;6.03;2.98;;;;;;;5.05;97.37;100539.14;1756768;81;21127;-78
2021/09/05 00:44:04;;;;;;;5.22;3.00;;;;;;;5.08;98.05;100535.64;1756568;81;21060;-77
2021/09/05 00:46:36;;;;;;;5.58;2.62;;;;;;;5.07;98.12;100538.70;1723135;83;21464;-77
2021/09/05 00:49:04;;;;;;;6.80;2.92;;;;;;;5.06;98.14;100542.17;1669236;84;21069;-77
2021/09/05 00:51:34;;;;;;;5.90;2.95;;;;;;;5.04;98.24;100539.59;1697403;84;21124;-77
2021/09/05 00:54:06;;;;;;;6.40;2.90;;;;;;;5.01;98.11;100544.81;1715167;83;21871;-76
2021/09/05 00:56:34;;;;;;;7.33;2.70;;;;;;;4.99;98.14;100549.63;1707751;84;21045;-77
2021/09/05 00:59:11;;;;;;;8.98;2.83;;;;;;;4.96;98.21;100556.19;1707627;84;21065;-77
2021/09/05 01:01:37;;;;;;;5.83;3.33;;;;;;;4.94;98.23;100552.71;1707876;84;21092;-78
2021/09/05 01:04:04;;;;;;;6.22;3.25;;;;;;;4.94;98.52;100552.71;1707454;84;21583;-76
2021/09/05 01:06:38;;;;;;;7.05;3.02;;;;;;;4.93;98.64;100554.91;1707473;84;21152;-77
2021/09/05 01:09:06;;;;;;;5.25;2.92;;;;;;;4.93;98.77;100553.60;1708209;84;21049;-77
2021/09/05 01:11:34;;;;;;;6.50;3.08;;;;;;;4.93;99.01;100556.22;1700425;83;21533;-76
2021/09/05 01:14:06;;;;;;;7.78;3.10;;;;;;;4.89;98.73;100555.80;1695483;84;21073;-76
2021/09/05 01:16:38;;;;;;;7.65;3.00;;;;;;;4.89;99.07;100558.41;1695186;84;21072;-77
2021/09/05 01:19:15;;;;;;;12.47;2.75;;;;;;;4.87;99.23;100559.72;1694196;83;21162;-76
2021/09/05 01:21:47;;;;;;;5.92;3.05;;;;;;;4.86;99.15;100560.61;1688338;84;21085;-77
2021/09/05 01:24:28;;;;;;;9.35;3.12;;;;;;;4.87;99.54;100556.25;1664868;84;21042;-77
2021/09/05 01:27:13;;;;;;;7.72;3.12;;;;;;;4.87;99.52;100570.60;1694576;84;21037;-78
2021/09/05 01:30:00;;;;;;;7.45;3.40;;;;;;;4.82;99.53;100564.97;1623815;88;21070;-76
2021/09/05 01:32:28;;;;;;;4.78;2.95;;;;;;;4.82;100.00;100570.19;1665082;86;21162;-77
2021/09/05 01:35:13;;;;;;;4.75;2.47;;;;;;;4.83;100.00;100575.84;1698125;82;21030;-77
2021/09/05 01:37:48;;;;;;;6.62;2.85;;;;;;;4.83;100.00;100574.55;1731352;82;21038;-77
2021/09/05 01:40:21;;;;;;;4.47;2.62;;;;;;;4.80;100.00;100573.69;1734276;82;21540;-77
2021/09/05 01:42:55;;;;;;;6.83;2.77;;;;;;;4.78;100.00;100572.82;1697492;82;21009;-76
2021/09/05 01:45:36;;;;;;;6.45;2.75;;;;;;;4.77;100.00;100580.23;1668828;82;21791;-77
2021/09/05 01:48:12;;;;;;;6.67;3.08;;;;;;;4.74;100.00;100577.21;1731294;82;21053;-77
2021/09/05 01:50:44;;;;;;;5.03;2.92;;;;;;;4.75;100.00;100581.54;1677824;82;22233;-75
2021/09/05 01:53:15;;;;;;;6.08;3.17;;;;;;;4.73;100.00;100576.77;1726844;82;21034;-75
2021/09/05 01:55:56;;;;;;;5.33;3.12;;;;;;;4.73;100.00;100580.68;1676442;84;21112;-76
2021/09/05 01:58:36;;;;;;;7.15;2.87;;;;;;;4.68;100.00;100586.37;1702837;84;21192;-76
2021/09/05 02:01:20;;;;;;;9.55;3.42;;;;;;;4.68;100.00;100589.42;1610738;87;21129;-77
2021/09/05 02:03:58;;;;;;;4.50;2.77;;;;;;;4.66;100.00;100595.08;1634129;87;21061;-77
2021/09/05 02:06:27;;;;;;;8.98;3.17;;;;;;;4.62;100.00;100591.61;1668473;85;21570;-76
2021/09/05 02:08:56;;;;;;;4.92;3.05;;;;;;;4.59;100.00;100594.25;1663631;86;21391;-76
2021/09/05 02:11:38;;;;;;;6.87;2.80;;;;;;;4.53;100.00;100596.46;1666810;84;21090;-77
2021/09/05 02:14:08;;;;;;;4.63;2.63;;;;;;;4.48;100.00;100595.59;1676820;85;21095;-77
2021/09/05 02:16:46;;;;;;;5.35;3.00;;;;;;;4.45;100.00;100604.74;1648691;85;21318;-76
2021/09/05 02:19:26;;;;;;;4.92;2.60;;;;;;;4.40;100.00;100600.85;1679456;85;21095;-76
2021/09/05 02:21:55;;;;;;;6.03;2.50;;;;;;;4.37;100.00;100602.18;1668005;85;21683;-76
2021/09/05 02:24:24;;;;;;;7.65;2.67;;;;;;;4.36;100.00;100603.48;1675460;85;21291;-76
2021/09/05 02:26:54;;;;;;;4.58;2.77;;;;;;;4.33;100.00;100603.06;1669753;85;21152;-76
2021/09/05 02:29:26;;;;;;;5.22;2.70;;;;;;;4.30;100.00;100608.30;1661578;85;21112;-77
2021/09/05 02:32:06;;;;;;;4.85;2.50;;;;;;;4.26;100.00;100609.17;1669351;85;21113;-77
2021/09/05 02:34:47;;;;;;;4.92;2.52;;;;;;;4.23;100.00;100610.47;1655937;85;21100;-77
2021/09/05 02:37:20;;;;;;;7.92;3.02;;;;;;;4.19;100.00;100612.67;1669062;85;21064;-76
2021/09/05 02:39:51;;;;;;;4.65;2.77;;;;;;;4.16;100.00;100613.97;1679526;85;21045;-78
2021/09/05 02:42:18;;;;;;;5.45;2.77;;;;;;;4.13;100.00;100613.98;1672054;85;21092;-76
2021/09/05 02:44:59;;;;;;;6.08;2.85;;;;;;;4.13;100.00;100620.06;1678427;85;21092;-76
2021/09/05 02:47:34;;;;;;;4.90;2.67;;;;;;;4.11;100.00;100619.64;1656173;85;21017;-78
2021/09/05 02:50:04;;;;;;;5.67;2.75;;;;;;;4.08;100.00;100615.30;1678452;85;21155;-77
2021/09/05 02:52:39;;;;;;;5.87;3.10;;;;;;;4.07;100.00;100623.11;1638826;85;21048;-78
2021/09/05 02:55:10;;;;;;;5.53;2.47;;;;;;;4.04;100.00;100616.63;1670172;85;21105;-77
2021/09/05 02:57:51;;;;;;;5.62;2.95;;;;;;;3.99;100.00;100621.40;1677153;85;21096;-77
2021/09/05 03:00:20;;;;;;;5.85;2.65;;;;;;;3.95;100.00;100622.27;1676101;85;21064;-78
2021/09/05 03:02:58;;;;;;;4.97;2.62;;;;;;;3.93;100.00;100622.73;1707598;83;21522;-77
2021/09/05 03:05:44;;;;;;;7.42;2.40;;;;;;;3.90;100.00;100625.33;1698278;84;21100;-77
2021/09/05 03:08:16;;;;;;;5.95;2.90;;;;;;;3.90;100.00;100625.33;1678007;83;21080;-77
2021/09/05 03:10:45;;;;;;;6.30;2.87;;;;;;;3.91;100.00;100630.09;1697483;83;21145;-76
2021/09/05 03:13:13;;;;;;;4.42;2.52;;;;;;;3.90;100.00;100630.53;1687956;84;21561;-76
2021/09/05 03:15:53;;;;;;;3.67;2.35;;;;;;;3.88;100.00;100644.44;1691734;84;21152;-77
2021/09/05 03:18:24;;;;;;;8.25;2.67;;;;;;;3.87;100.00;100640.98;1690199;84;21076;-78
2021/09/05 03:20:53;;;;;;;4.20;2.30;;;;;;;3.89;100.00;100635.33;1691272;84;21084;-77
2021/09/05 03:23:21;;;;;;;5.60;2.65;;;;;;;3.89;100.00;100639.24;1685208;84;21120;-77
2021/09/05 03:25:55;;;;;;;4.45;2.70;;;;;;;3.90;100.00;100642.27;1692152;84;21049;-77
2021/09/05 03:28:32;;;;;;;4.08;2.37;;;;;;;3.92;100.00;100640.97;1683996;84;21111;-78
2021/09/05 03:31:11;;;;;;;5.35;2.87;;;;;;;3.93;100.00;100644.89;1664689;84;21075;-74
2021/09/05 03:33:46;;;;;;;5.60;3.08;;;;;;;3.95;100.00;100645.72;1652728;84;21066;-77
2021/09/05 03:36:23;;;;;;;6.17;2.67;;;;;;;3.98;100.00;100650.09;1657983;86;21041;-76
2021/09/05 03:38:51;;;;;;;6.28;2.67;;;;;;;3.99;100.00;100651.37;1683537;84;21046;-76
2021/09/05 03:41:32;;;;;;;4.25;2.62;;;;;;;4.03;100.00;100657.91;1692993;84;21760;-76
2021/09/05 03:44:10;;;;;;;4.17;2.60;;;;;;;4.09;100.00;100660.47;1691250;84;21129;-77
2021/09/05 03:46:49;;;;;;;15.30;3.15;;;;;;;4.13;100.00;100671.34;1691333;84;21018;-77
2021/09/05 03:49:28;;;;;;;4.33;2.60;;;;;;;4.19;100.00;100671.33;1691402;84;21121;-77
2021/09/05 03:51:58;;;;;;;8.13;2.52;;;;;;;4.22;100.00;100671.31;1694251;84;21090;-77
2021/09/05 03:54:27;;;;;;;6.00;2.73;;;;;;;4.26;100.00;100667.84;1694294;84;21928;-78
2021/09/05 03:56:55;;;;;;;6.85;2.75;;;;;;;4.38;100.00;100674.31;1694313;84;21101;-78
2021/09/05 03:59:22;;;;;;;2.95;2.20;;;;;;;4.83;100.00;100675.42;1694355;84;21148;-79
2021/09/05 04:01:48;;;;;;;7.67;2.87;;;;;;;5.44;100.00;100674.21;1694987;84;21065;-78
2021/09/05 04:04:16;;;;;;;7.10;2.50;;;;;;;6.16;100.00;100675.36;1695261;84;21101;-76
2021/09/05 04:06:48;;;;;;;8.35;2.98;;;;;;;6.85;100.00;100676.72;1697552;84;21130;-77
2021/09/05 04:10:08;;;;;;;6.83;2.62;;;;;;;7.51;99.37;100680.17;1697691;79;20927;-78
2021/09/05 04:11:41;;;;;;;6.50;2.55;;;;;;;8.14;97.58;100683.92;1699119;79;21065;-78
2021/09/05 04:14:07;;;;;;;4.87;2.70;;;;;;;8.76;94.74;100670.92;1713164;83;21045;-78
2021/09/05 04:16:34;;;;;;;8.53;3.10;;;;;;;9.36;92.43;100675.75;1700974;84;21120;-78
2021/09/05 04:19:00;;;;;;;5.00;2.90;;;;;;;9.92;89.82;100675.72;1710242;83;22108;-77
2021/09/05 04:21:27;;;;;;;4.30;2.50;;;;;;;10.49;86.78;100677.73;1699824;84;21109;-79
2021/09/05 04:23:53;;;;;;;8.80;2.30;;;;;;;10.99;84.00;100675.84;1709791;83;21096;-78
2021/09/05 04:26:20;;;;;;;7.72;2.22;;;;;;;11.40;81.55;100677.66;1699847;84;21116;-78
2021/09/05 04:28:48;;;;;;;4.62;2.55;;;;;;;11.86;78.76;100685.39;1710241;83;21615;-78
2021/09/05 04:31:15;;;;;;;5.45;2.58;;;;;;;12.33;76.78;100677.63;1699931;84;21132;-78
2021/09/05 04:33:41;;;;;;;5.05;2.42;;;;;;;12.83;74.00;100678.03;1709900;83;21012;-77
2021/09/05 04:36:10;;;;;;;6.47;2.60;;;;;;;13.28;72.02;100677.23;1699933;84;21085;-79
2021/09/05 04:38:38;;;;;;;5.03;2.20;;;;;;;13.80;69.99;100675.09;1709683;83;21567;-80
2021/09/05 04:41:04;;;;;;;4.78;2.33;;;;;;;14.27;67.78;100670.42;1700067;84;21116;-78
2021/09/05 04:43:33;;;;;;;3.90;2.35;;;;;;;14.75;65.04;100676.29;1709691;84;21070;-78
2021/09/05 04:45:59;;;;;;;5.47;2.40;;;;;;;15.20;63.69;100680.84;1699604;84;21081;-79
2021/09/05 04:48:26;;;;;;;9.43;2.72;;;;;;;15.64;61.92;100681.33;1682957;84;21096;-77
2021/09/05 04:50:54;;;;;;;4.22;2.37;;;;;;;16.03;60.80;100684.29;1699521;84;21653;-78
2021/09/05 04:53:21;;;;;;;4.65;2.62;;;;;;;16.47;59.52;100680.27;1709363;83;21065;-79
2021/09/05 04:55:48;;;;;;;4.42;2.52;;;;;;;16.86;58.08;100678.63;1681072;84;21996;-78
2021/09/05 04:58:15;;;;;;;3.98;2.40;;;;;;;17.27;57.29;100687.47;1656561;85;21076;-77
2021/09/05 05:00:42;;;;;;;5.78;2.37;;;;;;;17.67;55.88;100680.34;1654955;86;21034;-78
2021/09/05 05:03:09;;;;;;;5.92;2.72;;;;;;;18.06;55.01;100685.20;1655207;86;21117;-78
2021/09/05 05:05:38;;;;;;;6.30;2.58;;;;;;;18.36;54.32;100678.98;1654913;86;21126;-78
2021/09/05 05:08:06;;;;;;;5.10;2.17;;;;;;;18.78;52.90;100681.31;1655151;86;21128;-77
2021/09/05 05:10:33;;;;;;;5.40;2.95;;;;;;;19.05;52.41;100684.91;1654689;86;21034;-77
2021/09/05 05:13:00;;;;;;;3.77;2.30;;;;;;;19.21;51.41;100675.89;1671652;84;21049;-78
2021/09/05 05:15:28;;;;;;;5.35;2.75;;;;;;;19.34;50.88;100684.83;1654796;86;21093;-77
2021/09/05 05:17:57;;;;;;;2.67;1.90;;;;;;;19.64;49.99;100683.78;1654837;86;21102;-77
2021/09/05 05:20:24;;;;;;;4.00;2.02;;;;;;;19.89;48.22;100681.22;1654956;86;21495;-78
2021/09/05 05:22:51;;;;;;;5.12;2.27;;;;;;;20.08;48.41;100682.64;1671585;85;21525;-79
2021/09/05 05:25:18;;;;;;;4.42;2.20;;;;;;;20.41;47.86;100682.16;1655108;86;21133;-77
2021/09/05 05:27:47;;;;;;;5.50;1.95;;;;;;;20.79;46.28;100677.29;1654747;86;21047;-78
2021/09/05 05:30:18;;;;;;;5.00;2.20;;;;;;;21.11;45.88;100679.48;1671563;85;22090;-77
2021/09/05 05:32:46;;;;;;;4.15;1.90;;;;;;;21.22;44.30;100676.03;1630472;86;21155;-78
2021/09/05 05:35:18;;;;;;;3.22;1.70;;;;;;;21.11;44.56;100684.34;1654844;86;21620;-78
2021/09/05 05:37:48;;;;;;;4.00;1.90;;;;;;;21.33;44.50;100686.83;1655284;86;21614;-78
2021/09/05 05:40:15;;;;;;;4.22;1.90;;;;;;;21.74;43.16;100684.25;1655040;86;21081;-77
2021/09/05 05:42:41;;;;;;;2.87;1.80;;;;;;;22.11;42.55;100678.77;1655266;86;21105;-77
2021/09/05 05:45:09;;;;;;;5.00;2.35;;;;;;;22.40;41.57;100678.75;1655146;86;21596;-77
2021/09/05 05:47:35;;;;;;;4.95;1.90;;;;;;;22.67;40.63;100680.25;1655003;86;21062;-78
2021/09/05 05:50:02;;;;;;;2.40;1.70;;;;;;;22.75;40.07;100683.20;1654721;86;21597;-80
2021/09/05 05:52:30;;;;;;;2.77;1.80;;;;;;;22.99;39.23;100684.92;1654765;86;21111;-78
2021/09/05 05:54:57;;;;;;;2.50;1.65;;;;;;;23.25;38.16;100686.83;1663118;85;21457;-78
2021/09/05 05:57:24;;;;;;;3.70;1.70;;;;;;;23.25;38.57;100686.34;1683337;85;21696;-79
2021/09/05 05:59:53;;;;;;;7.65;1.80;;;;;;;23.43;37.86;100688.02;1683203;85;21767;-79
2021/09/05 06:02:19;;;;;;;3.83;1.65;;;;;;;23.68;37.47;100694.55;1682733;85;21074;-77
2021/09/05 06:04:46;;;;;;;3.95;1.87;;;;;;;24.01;36.82;100693.58;1682540;85;21576;-77
2021/09/05 06:07:13;;;;;;;3.17;1.52;;;;;;;24.22;36.04;100692.23;1682481;85;21117;-78
2021/09/05 06:09:41;;;;;;;2.55;1.85;;;;;;;24.57;35.05;100691.06;1682453;84;21112;-77
2021/09/05 06:12:09;;;;;;;2.62;1.70;;;;;;;24.98;34.31;100693.30;1711724;83;21497;-80
2021/09/05 06:14:37;;;;;;;3.85;2.00;;;;;;;25.14;33.58;100689.59;1691524;84;22197;-76
2021/09/05 06:17:05;;;;;;;2.98;1.40;;;;;;;25.28;32.41;100691.96;1691378;84;21100;-78
2021/09/05 06:19:32;;;;;;;2.02;1.47;;;;;;;25.38;32.21;100690.63;1691716;84;21068;-78
2021/09/05 06:21:58;;;;;;;2.77;1.60;;;;;;;25.44;33.01;100690.55;1691509;84;21790;-77
2021/09/05 06:24:25;;;;;;;2.75;1.50;;;;;;;25.53;30.41;100693.75;1691271;84;21064;-81
2021/09/05 06:26:53;;;;;;;2.47;1.37;;;;;;;25.51;30.84;100696.61;1691529;84;21127;-78
2021/09/05 06:29:20;;;;;;;2.98;1.40;;;;;;;25.65;30.11;100703.44;1691360;84;21115;-77
2021/09/05 06:31:49;;;;;;;3.15;1.55;;;;;;;25.74;29.98;100706.64;1691489;84;21055;-78
2021/09/05 06:34:15;;;;;;;2.90;1.40;;;;;;;25.88;29.88;100705.41;1691798;84;21191;-79
2021/09/05 06:36:42;;;;;;;2.98;1.45;;;;;;;26.19;28.89;100707.09;1692993;84;21052;-77
2021/09/05 06:39:08;;;;;;;2.85;1.47;;;;;;;26.36;29.02;100700.93;1693486;84;21060;-77
2021/09/05 06:41:35;;;;;;;2.10;1.50;;;;;;;26.46;28.53;100705.83;1692883;84;21100;-75
2021/09/05 06:44:01;;;;;;;2.55;1.30;;;;;;;26.15;27.67;100704.66;1692834;84;21526;-78
2021/09/05 06:46:27;;;;;;;8.23;2.30;;;;;;;25.91;29.20;100708.31;1691676;84;22113;-78
2021/09/05 06:48:54;;;;;;;3.12;1.27;;;;;;;25.77;28.34;100710.91;1691440;84;21590;-76
2021/09/05 06:51:21;;;;;;;2.42;1.15;;;;;;;26.14;28.11;100698.91;1691512;84;21606;-78
2021/09/05 06:53:48;;;;;;;2.37;1.30;;;;;;;26.14;28.11;100698.91;1691602;84;21049;-76
2021/09/05 06:56:14;;;;;;;2.27;1.40;;;;;;;26.48;27.79;100709.23;1664210;84;21063;-79
2021/09/05 06:58:41;;;;;;;2.50;1.72;;;;;;;26.63;27.92;100702.05;1674029;85;21166;-79
2021/09/05 07:01:11;;;;;;;3.12;1.67;;;;;;;26.69;27.40;100706.88;1673308;85;21064;-80
2021/09/05 07:03:37;;;;;;;3.50;1.47;;;;;;;26.75;27.51;100703.55;1673405;85;21520;-78
2021/09/05 07:06:05;;;;;;;5.62;1.82;;;;;;;26.78;27.08;100714.09;1650380;85;21064;-77
2021/09/05 07:08:32;;;;;;;3.25;1.40;;;;;;;26.99;26.28;100714.70;1671840;85;21617;-77
2021/09/05 07:10:59;;;;;;;2.70;1.50;;;;;;;27.09;26.08;100709.75;1686889;85;21503;-76
2021/09/05 07:13:26;;;;;;;1.52;1.10;;;;;;;27.37;26.46;100719.58;1690774;84;21091;-79
2021/09/05 07:15:52;;;;;;;2.27;1.60;;;;;;;27.37;25.09;100718.22;1659297;86;21021;-79
2021/09/05 07:18:23;;;;;;;3.42;1.70;;;;;;;27.38;26.00;100717.23;1668780;86;21061;-77
2021/09/05 07:20:52;;;;;;;1.92;1.40;;;;;;;27.59;25.45;100726.93;1664322;85;21102;-78
2021/09/05 07:23:19;;;;;;;2.40;1.30;;;;;;;27.78;25.92;100721.36;1668606;86;21125;-76
2021/09/05 07:25:45;;;;;;;2.27;1.00;;;;;;;27.93;26.02;100718.14;1668765;86;21053;-79
2021/09/05 07:28:12;;;;;;;2.05;0.95;;;;;;;27.60;23.24;100725.41;1668705;85;21085;-79
2021/09/05 07:30:39;;;;;;;1.82;1.02;;;;;;;26.98;23.78;100725.14;1668887;85;21142;-78
2021/09/05 07:33:07;;;;;;;1.27;0.80;;;;;;;26.71;24.51;100738.61;1668962;85;21064;-78
2021/09/05 07:35:42;;;;;;;1.35;0.90;;;;;;;26.85;24.05;100734.11;1677439;84;21924;-77
2021/09/05 07:38:10;;;;;;;2.08;1.05;;;;;;;27.05;24.24;100731.31;1662548;84;21088;-77
2021/09/05 07:40:36;;;;;;;2.22;1.00;;;;;;;27.28;23.77;100733.16;1698860;84;21561;-77
2021/09/05 07:43:03;;;;;;;3.55;1.07;;;;;;;27.20;23.24;100732.06;1697360;84;21560;-77
2021/09/05 07:45:29;;;;;;;1.20;0.70;;;;;;;26.92;23.28;100739.78;1697110;84;21141;-78
2021/09/05 07:47:56;;;;;;;1.27;0.82;;;;;;;26.83;22.24;100743.37;1697061;84;21144;-79
2021/09/05 07:50:22;;;;;;;2.87;0.95;;;;;;;26.84;24.03;100739.14;1696972;84;21060;-79
2021/09/05 07:52:52;;;;;;;1.57;0.85;;;;;;;27.17;22.93;100739.58;1697246;84;21084;-77
2021/09/05 07:55:19;;;;;;;1.03;0.60;;;;;;;27.50;21.49;100744.92;1697863;84;21636;-77
2021/09/05 07:57:45;;;;;;;2.58;1.10;;;;;;;27.25;21.84;100738.37;1697420;84;21346;-77
2021/09/05 08:00:16;;;;;;;1.62;0.80;;;;;;;27.06;22.01;100738.45;1697128;84;21070;-78
2021/09/05 08:02:42;;;;;;;1.40;0.80;;;;;;;27.21;23.67;100742.37;1697589;84;21605;-77
2021/09/05 08:05:13;;;;;;;6.50;1.50;;;;;;;27.15;22.31;100734.84;1697235;84;21599;-78
2021/09/05 08:07:40;;;;;;;1.72;1.05;;;;;;;27.15;22.33;100741.60;1697713;84;21069;-78
2021/09/05 08:10:08;;;;;;;3.12;0.80;;;;;;;27.32;21.94;100742.67;1697349;84;21117;-77
2021/09/05 08:12:37;;;;;;;2.98;0.93;;;;;;;27.47;21.12;100745.23;1696703;83;21053;-76
2021/09/05 08:15:08;;;;;;;1.32;0.70;;;;;;;27.48;20.56;100741.52;1688677;84;21141;-78
2021/09/05 08:17:37;;;;;;;1.10;0.80;;;;;;;27.34;20.21;100737.47;1687203;85;21074;-76
2021/09/05 08:20:06;;;;;;;1.45;0.88;;;;;;;27.16;20.42;100746.00;1687214;85;21090;-78
2021/09/05 08:22:33;;;;;;;1.52;0.93;;;;;;;27.34;21.21;100745.58;1687754;85;21082;-76
2021/09/05 08:24:59;;;;;;;1.10;0.85;;;;;;;27.51;19.93;100745.25;1686868;85;21156;-77
2021/09/05 08:27:26;;;;;;;1.00;0.70;;;;;;;27.62;20.20;100742.84;1686708;85;21565;-77
2021/09/05 08:29:54;;;;;;;1.80;0.93;;;;;;;27.80;20.94;100742.88;1686510;85;21595;-77
2021/09/05 08:32:21;;;;;;;1.92;0.80;;;;;;;27.93;19.85;100747.91;1687105;85;21596;-78
2021/09/05 08:34:48;;;;;;;1.60;0.98;;;;;;;28.00;20.56;100749.03;1686773;85;21058;-77
2021/09/05 08:37:15;;;;;;;2.72;0.70;;;;;;;28.00;19.61;100755.28;1687013;85;22202;-77
2021/09/05 08:39:41;;;;;;;4.00;1.05;;;;;;;28.06;20.35;100756.50;1686759;85;21604;-78
2021/09/05 08:42:08;;;;;;;1.77;0.90;;;;;;;28.32;20.92;100753.00;1686934;85;21066;-78
2021/09/05 08:44:35;;;;;;;2.40;0.93;;;;;;;28.34;19.23;100761.82;1665769;85;21187;-78
2021/09/05 08:47:03;;;;;;;1.85;0.93;;;;;;;27.78;18.80;100753.84;1687375;85;21132;-78
2021/09/05 08:49:35;;;;;;;1.72;0.93;;;;;;;27.26;21.12;100758.98;1689566;85;21079;-77
2021/09/05 08:52:04;;;;;;;4.55;1.25;;;;;;;27.10;20.37;100762.80;1687459;85;21109;-77
2021/09/05 08:54:32;;;;;;;1.17;0.80;;;;;;;27.14;21.01;100758.30;1684069;85;21129;-77
2021/09/05 08:57:00;;;;;;;1.25;0.82;;;;;;;27.25;19.50;100755.95;1659531;86;21579;-78
2021/09/05 08:59:27;;;;;;;5.35;1.10;;;;;;;26.98;20.70;100758.93;1659841;86;21105;-77
2021/09/05 09:01:56;;;;;;;1.95;0.80;;;;;;;26.25;21.68;100764.06;1660483;85;21511;-79
2021/09/05 09:04:23;;;;;;;2.83;1.00;;;;;;;25.69;21.03;100760.64;1658897;86;21197;-78
2021/09/05 09:06:51;;;;;;;1.67;0.90;;;;;;;25.64;23.33;100765.10;1659039;85;21015;-78
2021/09/05 09:09:18;;;;;;;3.95;0.93;;;;;;;25.80;22.36;100767.27;1658985;85;21081;-78
2021/09/05 09:11:57;;;;;;;3.00;1.05;;;;;;;25.92;21.30;100770.71;1659136;86;21644;-79
2021/09/05 09:14:43;;;;;;;3.52;0.80;;;;;;;26.01;22.12;100759.07;1681730;84;21148;-79
2021/09/05 09:17:11;;;;;;;2.02;0.80;;;;;;;25.90;21.24;100770.00;1691542;84;21078;-80
2021/09/05 09:19:40;;;;;;;1.70;1.00;;;;;;;25.39;21.92;100765.61;1691159;84;21032;-79
2021/09/05 09:22:18;;;;;;;1.67;0.90;;;;;;;25.12;22.98;100765.21;1666346;84;21075;-79
2021/09/05 09:24:44;;;;;;;1.60;0.80;;;;;;;25.24;22.00;100757.06;1658300;86;21396;-78
2021/09/05 09:27:15;;;;;;;1.72;0.90;;;;;;;25.48;21.39;100757.55;1668882;86;21154;-79
2021/09/05 09:29:43;;;;;;;2.20;0.80;;;;;;;25.71;22.98;100754.11;1668881;86;21032;-79
2021/09/05 09:32:20;;;;;;;2.65;0.85;;;;;;;25.75;21.28;100751.50;1669409;85;21153;-79
2021/09/05 09:34:48;;;;;;;2.20;1.20;;;;;;;25.79;22.35;100751.20;1641609;86;21112;-79
2021/09/05 09:37:21;;;;;;;4.28;0.80;;;;;;;25.72;21.42;100752.26;1669459;86;21077;-78
2021/09/05 09:39:54;;;;;;;1.55;1.00;;;;;;;25.75;21.63;100742.05;1669104;85;21081;-78
2021/09/05 09:42:39;;;;;;;0.82;0.60;;;;;;;25.62;22.52;100756.80;1669489;86;21121;-78
2021/09/05 09:45:13;;;;;;;1.92;1.00;;;;;;;25.83;21.42;100753.98;1669855;86;21076;-76
2021/09/05 09:47:51;;;;;;;2.67;0.88;;;;;;;26.25;20.98;100749.68;1669901;86;21073;-78
2021/09/05 09:50:21;;;;;;;3.70;1.00;;;;;;;26.26;21.53;100746.00;1669249;85;21069;-82
2021/09/05 09:52:48;;;;;;;6.55;1.17;;;;;;;26.22;20.90;100740.53;1669463;86;21929;-78
2021/09/05 09:55:17;;;;;;;3.08;1.10;;;;;;;25.83;21.74;100746.73;1680776;84;21077;-80
2021/09/05 09:57:43;;;;;;;2.25;0.88;;;;;;;25.03;21.92;100747.62;1697125;84;21113;-77
2021/09/05 10:00:11;;;;;;;1.75;0.90;;;;;;;24.06;22.69;100750.06;1698024;84;21524;-79
2021/09/05 10:02:42;;;;;;;1.70;0.98;;;;;;;23.49;24.29;100753.88;1696849;84;21112;-79
2021/09/05 10:05:13;;;;;;;3.80;0.90;;;;;;;23.16;24.30;100758.28;1696778;84;21113;-78
2021/09/05 10:07:42;;;;;;;1.90;0.90;;;;;;;22.80;24.90;100762.89;1696844;84;22161;-78
2021/09/05 10:10:12;;;;;;;5.65;1.12;;;;;;;22.51;25.94;100770.52;1696988;84;21092;-79
2021/09/05 10:12:41;;;;;;;2.47;1.00;;;;;;;22.30;25.82;100774.85;1697066;84;21073;-77
2021/09/05 10:15:09;;;;;;;2.22;0.80;;;;;;;22.33;26.94;100776.80;1690237;84;21092;-79
2021/09/05 10:17:38;;;;;;;3.98;1.07;;;;;;;22.68;27.39;100786.64;1696254;84;21081;-78
2021/09/05 10:20:07;;;;;;;5.13;1.10;;;;;;;23.03;26.33;100778.56;1696404;83;21069;-79
2021/09/05 10:22:36;;;;;;;3.30;1.05;;;;;;;23.39;26.35;100775.73;1696351;84;21807;-80
2021/09/05 10:25:04;;;;;;;10.08;1.55;;;;;;;23.60;25.57;100787.92;1696363;84;21178;-78
2021/09/05 10:27:37;;;;;;;4.35;1.00;;;;;;;23.59;26.38;100799.67;1696803;83;21576;-78
2021/09/05 10:30:14;;;;;;;1.90;0.60;;;;;;;23.02;27.56;100813.10;1697102;83;21018;-78
2021/09/05 10:32:59;;;;;;;7.72;1.25;;;;;;;22.23;28.74;100813.36;1697569;84;21093;-79
2021/09/05 10:35:48;;;;;;;3.37;0.90;;;;;;;21.60;30.70;100812.58;1696720;84;21090;-79
2021/09/05 10:38:19;;;;;;;2.67;1.00;;;;;;;20.90;33.70;100817.08;1698385;84;21136;-80
2021/09/05 10:40:56;;;;;;;3.87;0.90;;;;;;;20.42;33.26;100819.44;1698763;84;21117;-78
2021/09/05 10:43:26;;;;;;;4.05;0.80;;;;;;;20.41;33.34;100824.43;1697332;84;21103;-78
2021/09/05 10:45:55;;;;;;;2.95;0.82;;;;;;;20.52;33.08;100820.06;1692319;84;21152;-79
2021/09/05 10:48:34;;;;;;;1.02;0.65;;;;;;;20.68;32.46;100815.90;1667634;84;21627;-79
2021/09/05 10:51:16;;;;;;;2.70;0.78;;;;;;;21.01;32.15;100817.20;1696402;84;21596;-79
2021/09/05 10:53:58;;;;;;;3.10;0.70;;;;;;;21.38;30.60;100814.59;1696381;84;21096;-79
2021/09/05 10:56:28;;;;;;;2.60;1.00;;;;;;;21.48;29.62;100814.33;1670713;84;21127;-79
2021/09/05 10:59:00;;;;;;;0.80;0.53;;;;;;;21.62;29.81;100812.48;1668288;85;21097;-78
2021/09/05 11:01:34;;;;;;;3.05;0.75;;;;;;;21.75;29.29;100802.59;1668149;85;21081;-78
2021/09/05 11:04:16;;;;;;;0.80;0.65;;;;;;;22.15;29.06;100802.30;1668636;86;21057;-79
2021/09/05 11:06:56;;;;;;;4.70;0.80;;;;;;;22.69;29.37;100803.14;1668091;86;21073;-79
2021/09/05 11:09:29;;;;;;;1.35;0.60;;;;;;;23.22;26.95;100800.79;1668585;86;21122;-77
2021/09/05 11:12:26;;;;;;;0.93;0.68;;;;;;;23.59;26.86;100803.20;1668485;85;21152;-79
2021/09/05 11:14:56;;;;;;;2.85;0.88;;;;;;;23.74;26.99;100798.90;1661686;84;21627;-80
2021/09/05 11:17:29;;;;;;;2.75;1.00;;;;;;;23.80;26.59;100802.47;1659013;85;21062;-76
2021/09/05 11:20:14;;;;;;;3.30;1.02;;;;;;;23.64;27.05;100802.34;1659156;85;21875;-78
2021/09/05 11:22:47;;;;;;;4.15;1.07;;;;;;;23.37;28.15;100808.59;1659282;86;21980;-78
2021/09/05 11:25:27;;;;;;;2.58;0.90;;;;;;;22.55;29.64;100818.97;1659513;86;21580;-78
2021/09/05 11:27:58;;;;;;;2.60;0.90;;;;;;;21.80;31.27;100819.18;1659786;85;21101;-80
2021/09/05 11:30:34;;;;;;;2.60;0.90;;;;;;;21.14;35.01;100832.78;1659296;86;21097;-78
2021/09/05 11:33:07;;;;;;;3.10;0.90;;;;;;;20.51;37.72;100828.19;1658977;85;21073;-78
2021/09/05 11:35:47;;;;;;;1.95;0.95;;;;;;;19.93;37.86;100818.69;1658293;85;21126;-80
2021/09/05 11:38:19;;;;;;;1.60;0.98;;;;;;;19.54;39.71;100811.77;1659105;86;21125;-79
2021/09/05 11:40:53;;;;;;;1.82;0.90;;;;;;;19.40;40.45;100809.13;1658885;86;21125;-79
2021/09/05 11:43:32;;;;;;;1.57;0.70;;;;;;;19.47;38.84;100807.77;1659146;85;21149;-78